sensor_id;sensor_type;location;lat;lon;timestamp;pressure;altitude;pressure_sealevel;temperature;humidity
19674;BME280;9986;50.610;7.230;2024-03-23T01:07:35;45771.04;;;8.61;100.00
19674;BME280;9986;50.610;7.230;2024-03-23T01:18:17;40136.66;;;8.41;100.00
19674;BME280;9986;50.610;7.230;2024-03-23T01:23:31;34527.19;;;8.38;100.00
19674;BME280;9986;50.610;7.230;2024-03-23T01:28:45;26624.45;;;8.35;100.00
19674;BME280;9986;50.610;7.230;2024-03-23T01:45:36;29247.32;;;8.20;100.00
19674;BME280;9986;50.610;7.230;2024-03-23T02:02:36;33848.92;;;8.09;100.00
19674;BME280;9986;50.610;7.230;2024-03-23T02:44:19;42749.37;;;8.04;100.00
19674;BME280;9986;50.610;7.230;2024-03-23T02:49:37;36144.36;;;7.93;100.00
19674;BME280;9986;50.610;7.230;2024-03-23T02:54:57;42055.31;;;7.60;100.00
19674;BME280;9986;50.610;7.230;2024-03-23T03:00:17;51289.84;;;7.44;100.00
19674;BME280;9986;50.610;7.230;2024-03-23T03:05:59;48809.05;;;7.42;100.00
19674;BME280;9986;50.610;7.230;2024-03-23T03:11:19;38745.69;;;7.43;100.00
19674;BME280;9986;50.610;7.230;2024-03-23T03:16:38;30844.79;;;7.39;100.00
19674;BME280;9986;50.610;7.230;2024-03-23T03:35:38;50400.94;;;6.76;100.00
19674;BME280;9986;50.610;7.230;2024-03-23T03:43:42;90961.23;;;5.90;100.00
19674;BME280;9986;50.610;7.230;2024-03-23T03:58:06;91962.55;;;5.90;100.00
19674;BME280;9986;50.610;7.230;2024-03-23T04:06:30;98994.58;;;5.99;100.00
19674;BME280;9986;50.610;7.230;2024-03-23T04:33:45;66183.42;;;5.86;100.00
19674;BME280;9986;50.610;7.230;2024-03-23T04:50:39;99947.61;;;5.70;100.00
19674;BME280;9986;50.610;7.230;2024-03-23T05:02:09;80263.83;;;5.66;100.00
19674;BME280;9986;50.610;7.230;2024-03-23T05:10:23;62680.14;;;5.63;100.00
19674;BME280;9986;50.610;7.230;2024-03-23T05:16:17;60691.37;;;5.59;100.00
19674;BME280;9986;50.610;7.230;2024-03-23T05:22:17;71437.03;;;5.46;100.00
19674;BME280;9986;50.610;7.230;2024-03-23T05:27:42;86739.53;;;5.56;100.00
19674;BME280;9986;50.610;7.230;2024-03-23T05:46:18;77093.73;;;5.57;100.00
19674;BME280;9986;50.610;7.230;2024-03-23T05:56:49;65626.22;;;5.35;100.00
19674;BME280;9986;50.610;7.230;2024-03-23T06:04:48;83075.62;;;5.55;100.00
19674;BME280;9986;50.610;7.230;2024-03-23T06:09:59;102107.20;;;5.61;100.00
19674;BME280;9986;50.610;7.230;2024-03-23T06:42:58;85788.59;;;5.88;100.00
19674;BME280;9986;50.610;7.230;2024-03-23T06:48:11;80964.70;;;5.91;100.00
19674;BME280;9986;50.610;7.230;2024-03-23T06:56:07;79133.61;;;5.90;100.00
19674;BME280;9986;50.610;7.230;2024-03-23T07:17:37;119371.13;;;5.55;100.00
19674;BME280;9986;50.610;7.230;2024-03-23T07:31:07;121142.47;;;5.98;100.00
19674;BME280;9986;50.610;7.230;2024-03-23T07:39:08;144345.66;;;6.25;100.00
19674;BME280;9986;50.610;7.230;2024-03-23T07:44:21;144369.41;;;6.34;100.00
19674;BME280;9986;50.610;7.230;2024-03-23T07:49:35;144395.72;;;6.45;100.00
19674;BME280;9986;50.610;7.230;2024-03-23T07:54:50;144443.34;;;6.63;100.00
19674;BME280;9986;50.610;7.230;2024-03-23T08:05:32;144503.45;;;6.87;100.00
19674;BME280;9986;50.610;7.230;2024-03-23T08:10:51;144518.47;;;6.93;100.00
19674;BME280;9986;50.610;7.230;2024-03-23T08:16:05;144576.14;;;7.16;100.00
19674;BME280;9986;50.610;7.230;2024-03-23T08:21:14;144604.94;;;7.28;100.00
19674;BME280;9986;50.610;7.230;2024-03-23T08:26:27;144650.08;;;7.45;100.00
19674;BME280;9986;50.610;7.230;2024-03-23T08:31:40;144729.06;;;7.77;100.00
19674;BME280;9986;50.610;7.230;2024-03-23T08:39:31;144281.78;;;5.99;100.00
19674;BME280;9986;50.610;7.230;2024-03-23T08:44:45;144296.83;;;6.05;100.00
19674;BME280;9986;50.610;7.230;2024-03-23T08:50:00;144285.53;;;6.01;100.00
19674;BME280;9986;50.610;7.230;2024-03-23T08:57:54;144304.31;;;6.08;100.00
19674;BME280;9986;50.610;7.230;2024-03-23T09:19:05;144328.11;;;6.18;100.00
19674;BME280;9986;50.610;7.230;2024-03-23T09:24:18;144440.83;;;6.62;100.00
19674;BME280;9986;50.610;7.230;2024-03-23T09:37:47;144682.67;;;7.58;100.00
19674;BME280;9986;50.610;7.230;2024-03-23T09:45:41;144658.84;;;7.49;100.00
19674;BME280;9986;50.610;7.230;2024-03-23T09:50:56;144514.72;;;6.92;100.00
19674;BME280;9986;50.610;7.230;2024-03-23T10:01:21;144596.17;;;7.24;100.00
19674;BME280;9986;50.610;7.230;2024-03-23T10:09:14;144683.91;;;7.59;100.00
19674;BME280;9986;50.610;7.230;2024-03-23T10:33:24;144902.22;;;8.45;100.00
19674;BME280;9986;50.610;7.230;2024-03-23T10:49:21;144122.81;;;5.36;100.00
19674;BME280;9986;50.610;7.230;2024-03-23T11:08:32;144062.78;;;5.12;100.00
19674;BME280;9986;50.610;7.230;2024-03-23T11:16:36;144202.91;;;5.68;100.00
19674;BME280;9986;50.610;7.230;2024-03-23T11:25:25;144319.34;;;6.14;100.00
19674;BME280;9986;50.610;7.230;2024-03-23T11:52:38;144635.02;;;7.39;100.00
19674;BME280;9986;50.610;7.230;2024-03-23T12:05:48;144769.20;;;7.93;100.00
19674;BME280;9986;50.610;7.230;2024-03-23T12:32:31;145075.41;;;9.14;100.00
19674;BME280;9986;50.610;7.230;2024-03-23T12:37:46;145080.44;;;9.16;100.00
19674;BME280;9986;50.610;7.230;2024-03-23T12:45:39;145108.11;;;9.27;100.00
19674;BME280;9986;50.610;7.230;2024-03-23T12:53:40;145015.16;;;8.90;100.00
19674;BME280;9986;50.610;7.230;2024-03-23T12:58:56;145223.64;;;9.73;100.00
19674;BME280;9986;50.610;7.230;2024-03-23T13:06:49;145142.00;;;9.40;100.00
19674;BME280;9986;50.610;7.230;2024-03-23T13:14:43;145497.73;;;10.81;100.00
19674;BME280;9986;50.610;7.230;2024-03-23T13:25:20;145717.98;;;11.68;100.00
19674;BME280;9986;50.610;7.230;2024-03-23T13:30:33;145338.05;;;10.18;100.00
19674;BME280;9986;50.610;7.230;2024-03-23T13:46:43;145213.58;;;9.69;100.00
19674;BME280;9986;50.610;7.230;2024-03-23T14:02:40;145168.39;;;9.51;100.00
19674;BME280;9986;50.610;7.230;2024-03-23T14:13:18;145294.06;;;10.01;100.00
19674;BME280;9986;50.610;7.230;2024-03-23T14:21:14;145115.61;;;9.30;100.00
19674;BME280;9986;50.610;7.230;2024-03-23T14:29:11;145005.16;;;8.86;100.00
19674;BME280;9986;50.610;7.230;2024-03-23T14:34:26;145280.20;;;9.95;100.00
19674;BME280;9986;50.610;7.230;2024-03-23T14:39:40;145194.73;;;9.61;100.00
19674;BME280;9986;50.610;7.230;2024-03-23T14:44:54;145203.56;;;9.65;100.00
19674;BME280;9986;50.610;7.230;2024-03-23T14:55:31;145390.83;;;10.39;100.00
19674;BME280;9986;50.610;7.230;2024-03-23T15:00:45;145454.97;;;10.64;100.00
19674;BME280;9986;50.610;7.230;2024-03-23T15:08:42;145281.44;;;9.96;100.00
19674;BME280;9986;50.610;7.230;2024-03-23T15:19:15;145143.23;;;9.41;100.00
19674;BME280;9986;50.610;7.230;2024-03-23T15:21:46;145087.98;;;9.19;100.00
19674;BME280;9986;50.610;7.230;2024-03-23T15:29:44;144878.37;;;8.36;100.00
19674;BME280;9986;50.610;7.230;2024-03-23T15:40:23;144912.23;;;8.49;100.00
19674;BME280;9986;50.610;7.230;2024-03-23T15:48:14;144816.84;;;8.12;100.00
19674;BME280;9986;50.610;7.230;2024-03-23T15:56:20;144722.81;;;7.74;100.00
19674;BME280;9986;50.610;7.230;2024-03-23T16:01:33;144762.89;;;7.90;100.00
19674;BME280;9986;50.610;7.230;2024-03-23T16:06:48;144776.73;;;7.96;100.00
19674;BME280;9986;50.610;7.230;2024-03-23T16:14:35;144966.20;;;8.71;100.00
19674;BME280;9986;50.610;7.230;2024-03-23T16:19:49;144981.28;;;8.77;100.00
19674;BME280;9986;50.610;7.230;2024-03-23T16:27:40;144844.53;;;8.23;100.00
19674;BME280;9986;50.610;7.230;2024-03-23T16:38:08;144767.92;;;7.92;100.00
19674;BME280;9986;50.610;7.230;2024-03-23T16:46:08;144556.06;;;7.08;100.00
19674;BME280;9986;50.610;7.230;2024-03-23T16:51:25;144572.34;;;7.15;100.00
19674;BME280;9986;50.610;7.230;2024-03-23T17:02:21;144508.47;;;6.89;100.00
19674;BME280;9986;50.610;7.230;2024-03-23T17:13:08;144197.88;;;5.66;100.00
19674;BME280;9986;50.610;7.230;2024-03-23T17:18:27;144320.58;;;6.15;100.00
19674;BME280;9986;50.610;7.230;2024-03-23T17:23:36;144324.38;;;6.16;100.00
19674;BME280;9986;50.610;7.230;2024-03-23T17:31:35;144492.19;;;6.83;100.00
19674;BME280;9986;50.610;7.230;2024-03-23T17:39:29;144323.09;;;6.16;100.00
19674;BME280;9986;50.610;7.230;2024-03-23T17:44:43;144167.86;;;5.54;100.00
19674;BME280;9986;50.610;7.230;2024-03-23T17:49:56;144110.33;;;5.31;100.00
19674;BME280;9986;50.610;7.230;2024-03-23T17:55:11;143991.52;;;4.84;100.00
19674;BME280;9986;50.610;7.230;2024-03-23T18:00:27;143982.78;;;4.80;100.00
19674;BME280;9986;50.610;7.230;2024-03-23T18:11:11;144025.25;;;4.97;100.00
19674;BME280;9986;50.610;7.230;2024-03-23T18:19:03;143995.25;;;4.85;100.00
19674;BME280;9986;50.610;7.230;2024-03-23T18:24:18;143922.78;;;4.57;100.00
19674;BME280;9986;50.610;7.230;2024-03-23T18:29:33;143879.00;;;4.39;100.00
19674;BME280;9986;50.610;7.230;2024-03-23T18:42:47;140792.27;;;4.14;100.00
19674;BME280;9986;50.610;7.230;2024-03-23T18:58:45;142611.16;;;4.44;100.00
19674;BME280;9986;50.610;7.230;2024-03-23T19:09:23;143987.78;;;4.82;100.00
19674;BME280;9986;50.610;7.230;2024-03-23T19:14:37;143989.02;;;4.83;100.00
19674;BME280;9986;50.610;7.230;2024-03-23T19:19:52;144027.75;;;4.98;100.00
19674;BME280;9986;50.610;7.230;2024-03-23T19:25:06;144025.25;;;4.97;100.00
19674;BME280;9986;50.610;7.230;2024-03-23T19:30:21;144000.25;;;4.87;100.00
19674;BME280;9986;50.610;7.230;2024-03-23T19:43:42;143952.78;;;4.68;100.00
19674;BME280;9986;50.610;7.230;2024-03-23T19:51:33;143955.28;;;4.69;100.00
19674;BME280;9986;50.610;7.230;2024-03-23T19:59:25;143957.73;;;4.70;100.00
19674;BME280;9986;50.610;7.230;2024-03-23T20:04:38;143940.25;;;4.63;100.00
19674;BME280;9986;50.610;7.230;2024-03-23T20:09:52;143945.27;;;4.65;100.00
19674;BME280;9986;50.610;7.230;2024-03-23T20:20:22;130448.41;;;4.65;100.00
19674;BME280;9986;50.610;7.230;2024-03-23T20:33:35;143969.03;;;4.75;100.00
19674;BME280;9986;50.610;7.230;2024-03-23T20:38:42;116158.71;;;4.63;100.00
19674;BME280;9986;50.610;7.230;2024-03-23T20:46:36;66872.87;;;4.70;100.00
19674;BME280;9986;50.610;7.230;2024-03-23T20:51:49;47566.09;;;4.55;100.00
19674;BME280;9986;50.610;7.230;2024-03-23T20:57:02;54651.48;;;4.64;100.00
19674;BME280;9986;50.610;7.230;2024-03-23T21:07:37;43466.92;;;4.64;100.00
19674;BME280;9986;50.610;7.230;2024-03-23T21:15:30;58376.21;;;4.60;100.00
19674;BME280;9986;50.610;7.230;2024-03-23T21:20:41;64028.47;;;4.41;100.00
19674;BME280;9986;50.610;7.230;2024-03-23T21:28:44;63673.72;;;4.19;100.00
19674;BME280;9986;50.610;7.230;2024-03-23T21:39:18;137788.20;;;4.33;100.00
19674;BME280;9986;50.610;7.230;2024-03-23T21:47:09;143902.75;;;4.49;100.00
19674;BME280;9986;50.610;7.230;2024-03-23T21:57:38;127488.97;;;4.22;100.00
19674;BME280;9986;50.610;7.230;2024-03-23T22:02:52;129709.38;;;4.37;100.00
19674;BME280;9986;50.610;7.230;2024-03-23T22:13:31;143970.25;;;4.75;100.00
19674;BME280;9986;50.610;7.230;2024-03-23T22:21:21;143970.25;;;4.75;100.00
19674;BME280;9986;50.610;7.230;2024-03-23T22:26:36;143997.75;;;4.86;100.00
19674;BME280;9986;50.610;7.230;2024-03-23T22:37:09;143977.77;;;4.78;100.00
19674;BME280;9986;50.610;7.230;2024-03-23T22:42:22;143964.02;;;4.73;100.00
19674;BME280;9986;50.610;7.230;2024-03-23T22:50:10;143981.50;;;4.80;100.00
19674;BME280;9986;50.610;7.230;2024-03-23T22:55:23;143987.78;;;4.82;100.00
19674;BME280;9986;50.610;7.230;2024-03-23T23:16:43;143994.02;;;4.85;100.00
19674;BME280;9986;50.610;7.230;2024-03-23T23:30:00;144000.25;;;4.87;100.00
19674;BME280;9986;50.610;7.230;2024-03-23T23:35:15;143994.02;;;4.85;100.00
19674;BME280;9986;50.610;7.230;2024-03-23T23:43:07;143987.78;;;4.82;100.00
